createdAt,value
2017-07-28T00:00:07.269Z,0
2017-07-28T00:01:07.261Z,0
2017-07-28T00:02:07.532Z,0
2017-07-28T00:03:07.509Z,0
2017-07-28T00:04:07.501Z,0
2017-07-28T00:05:07.449Z,0
2017-07-28T00:06:07.448Z,0
2017-07-28T00:07:07.472Z,0
2017-07-28T00:08:07.159Z,0
2017-07-28T00:09:07.416Z,0
2017-07-28T00:10:07.071Z,0
2017-07-28T00:11:07.065Z,0
2017-07-28T00:12:07.343Z,0
2017-07-28T00:13:06.721Z,0
2017-07-28T00:14:07.343Z,0
2017-07-28T00:15:07.301Z,0
2017-07-28T00:16:07.301Z,0
2017-07-28T00:17:07.292Z,0
2017-07-28T00:18:07.341Z,0
2017-07-28T00:19:06.920Z,0
2017-07-28T00:20:07.273Z,0
2017-07-28T00:21:07.252Z,0
2017-07-28T00:22:07.196Z,0
2017-07-28T00:23:07.213Z,0
2017-07-28T00:24:06.861Z,0
2017-07-28T00:25:07.145Z,0
2017-07-28T00:26:07.188Z,0
2017-07-28T00:27:06.791Z,0
2017-07-28T00:28:06.801Z,0
2017-07-28T00:29:06.780Z,0
2017-07-28T00:30:07.092Z,0
2017-07-28T00:31:06.753Z,0
2017-07-28T00:32:07.050Z,0
2017-07-28T00:33:06.719Z,0
2017-07-28T00:34:06.701Z,0
2017-07-28T00:35:06.687Z,0
2017-07-28T00:36:06.671Z,0
2017-07-28T00:37:06.661Z,0
2017-07-28T00:38:06.648Z,0
2017-07-28T00:39:06.320Z,0
2017-07-28T00:40:06.913Z,0
2017-07-28T00:41:06.590Z,0
2017-07-28T00:42:06.900Z,0
2017-07-28T00:43:06.900Z,0
2017-07-28T00:44:05.929Z,0
2017-07-28T00:45:06.910Z,0
2017-07-28T00:46:06.831Z,0
2017-07-28T00:47:06.809Z,0
2017-07-28T00:48:06.810Z,0
2017-07-28T00:49:06.781Z,0
2017-07-28T00:50:06.783Z,0
2017-07-28T00:51:06.751Z,0
2017-07-28T00:52:06.725Z,0
2017-07-28T00:53:06.118Z,0
2017-07-28T00:54:06.112Z,0
2017-07-28T00:55:06.070Z,0
2017-07-28T00:56:06.390Z,0
2017-07-28T00:57:06.361Z,0
2017-07-28T00:58:06.650Z,0
2017-07-28T00:59:06.332Z,0
2017-07-28T01:00:06.318Z,0
2017-07-28T01:01:06.289Z,0
2017-07-28T01:02:05.682Z,0
2017-07-28T01:03:05.958Z,0
2017-07-28T01:04:06.310Z,0
2017-07-28T01:05:05.929Z,0
2017-07-28T01:06:06.319Z,0
2017-07-28T01:07:05.926Z,0
2017-07-28T01:08:05.979Z,0
2017-07-28T01:09:06.186Z,0
2017-07-28T01:10:06.154Z,0
2017-07-28T01:11:06.154Z,0
2017-07-28T01:12:06.440Z,0
2017-07-28T01:13:06.428Z,0
2017-07-28T01:14:06.421Z,0
2017-07-28T01:15:06.391Z,0
2017-07-28T01:16:05.769Z,0
2017-07-28T01:17:05.760Z,0
2017-07-28T01:18:06.070Z,0
2017-07-28T01:19:06.041Z,0
2017-07-28T01:20:06.033Z,0
2017-07-28T01:21:06.011Z,0
2017-07-28T01:22:05.989Z,0
2017-07-28T01:23:05.710Z,0
2017-07-28T01:24:06.271Z,0
2017-07-28T01:25:05.939Z,0
2017-07-28T01:26:06.254Z,0
2017-07-28T01:27:05.904Z,0
2017-07-28T01:28:05.600Z,0
2017-07-28T01:29:05.583Z,0
2017-07-28T01:30:05.550Z,0
2017-07-28T01:31:05.870Z,0
2017-07-28T01:32:05.529Z,0
2017-07-28T01:33:05.909Z,0
2017-07-28T01:34:06.110Z,0
2017-07-28T01:35:05.462Z,0
2017-07-28T01:36:05.790Z,0
2017-07-28T01:37:05.791Z,0
2017-07-28T01:38:05.750Z,0
2017-07-28T01:39:05.811Z,0
2017-07-28T01:40:05.717Z,0
2017-07-28T01:41:05.392Z,0
2017-07-28T01:42:05.680Z,0
2017-07-28T01:43:05.661Z,0
2017-07-28T01:44:05.042Z,0
2017-07-28T01:45:05.673Z,0
2017-07-28T01:46:05.608Z,0
2017-07-28T01:47:05.291Z,0
2017-07-28T01:48:04.961Z,0
2017-07-28T01:49:05.060Z,0
2017-07-28T01:50:05.550Z,0
2017-07-28T01:51:05.243Z,0
2017-07-28T01:52:05.512Z,0
2017-07-28T01:53:05.583Z,0
2017-07-28T01:54:05.190Z,0
2017-07-28T01:55:05.480Z,0
2017-07-28T01:56:05.452Z,0
2017-07-28T01:57:05.473Z,0
2017-07-28T01:58:05.755Z,0
2017-07-28T01:59:05.091Z,0
2017-07-28T02:00:05.083Z,0
2017-07-28T02:01:05.072Z,0
2017-07-28T02:02:05.362Z,0
2017-07-28T02:03:05.362Z,0
2017-07-28T02:04:04.723Z,0
2017-07-28T02:05:05.629Z,0
2017-07-28T02:06:05.290Z,0
2017-07-28T02:07:05.314Z,0
2017-07-28T02:08:04.952Z,0
2017-07-28T02:09:05.553Z,0
2017-07-28T02:10:05.231Z,0
2017-07-28T02:11:05.510Z,0
2017-07-28T02:12:04.911Z,0
2017-07-28T02:13:05.500Z,0
2017-07-28T02:14:05.179Z,0
2017-07-28T02:15:05.150Z,0
2017-07-28T02:16:04.850Z,0
2017-07-28T02:17:04.834Z,0
2017-07-28T02:18:05.450Z,0
2017-07-28T02:19:05.090Z,0
2017-07-28T02:20:05.376Z,0
2017-07-28T02:21:04.752Z,0
2017-07-28T02:22:04.751Z,0
2017-07-28T02:23:04.713Z,0
2017-07-28T02:24:05.021Z,0
2017-07-28T02:25:04.683Z,0
2017-07-28T02:26:05.332Z,0
2017-07-28T02:27:05.261Z,0
2017-07-28T02:28:04.953Z,0
2017-07-28T02:29:04.954Z,0
2017-07-28T02:30:04.961Z,0
2017-07-28T02:31:04.920Z,0
2017-07-28T02:32:04.890Z,0
2017-07-28T02:33:04.881Z,0
2017-07-28T02:34:04.880Z,0
2017-07-28T02:35:04.852Z,0
2017-07-28T02:36:05.123Z,0
2017-07-28T02:37:05.121Z,0
2017-07-28T02:38:04.792Z,0
2017-07-28T02:39:05.083Z,0
2017-07-28T02:40:05.070Z,0
2017-07-28T02:41:05.072Z,0
2017-07-28T02:42:05.021Z,0
2017-07-28T02:43:05.032Z,0
2017-07-28T02:44:05.005Z,0
2017-07-28T02:45:05.002Z,0
2017-07-28T02:46:04.670Z,0
2017-07-28T02:47:04.947Z,0
2017-07-28T02:48:04.937Z,0
2017-07-28T02:49:04.931Z,0
2017-07-28T02:50:04.910Z,0
2017-07-28T02:51:04.911Z,0
2017-07-28T02:52:04.867Z,0
2017-07-28T02:53:04.571Z,0
2017-07-28T02:54:04.843Z,0
2017-07-28T02:55:04.837Z,0
2017-07-28T02:56:04.833Z,0
2017-07-28T02:57:04.801Z,0
2017-07-28T02:58:04.167Z,0
2017-07-28T02:59:04.759Z,0
2017-07-28T03:00:04.438Z,0
2017-07-28T03:01:04.119Z,0
2017-07-28T03:02:04.722Z,0
2017-07-28T03:03:04.720Z,0
2017-07-28T03:04:04.700Z,0
2017-07-28T03:05:04.432Z,0
2017-07-28T03:06:04.360Z,0
2017-07-28T03:07:04.322Z,0
2017-07-28T03:08:04.301Z,0
2017-07-28T03:09:04.443Z,0
2017-07-28T03:10:04.292Z,0
2017-07-28T03:11:04.581Z,0
2017-07-28T03:12:04.551Z,4
2017-07-28T03:13:04.224Z,4
2017-07-28T03:14:04.530Z,4
2017-07-28T03:15:04.180Z,0
2017-07-28T03:16:04.481Z,4
2017-07-28T03:17:04.461Z,4
2017-07-28T03:18:04.451Z,4
2017-07-28T03:19:04.133Z,4
2017-07-28T03:20:03.811Z,4
2017-07-28T03:21:04.172Z,8
2017-07-28T03:22:04.381Z,8
2017-07-28T03:23:04.391Z,8
2017-07-28T03:24:04.086Z,8
2017-07-28T03:25:04.331Z,8
2017-07-28T03:26:04.302Z,16
2017-07-28T03:27:03.691Z,16
2017-07-28T03:28:03.682Z,12
2017-07-28T03:29:03.959Z,16
2017-07-28T03:30:04.016Z,20
2017-07-28T03:31:04.249Z,20
2017-07-28T03:32:04.219Z,24
2017-07-28T03:33:03.679Z,24
2017-07-28T03:34:03.870Z,28
2017-07-28T03:35:03.856Z,28
2017-07-28T03:36:03.952Z,28
2017-07-28T03:37:03.539Z,36
2017-07-28T03:38:03.498Z,36
2017-07-28T03:39:03.791Z,40
2017-07-28T03:40:03.790Z,44
2017-07-28T03:41:03.460Z,44
2017-07-28T03:42:03.435Z,48
2017-07-28T03:43:03.163Z,52
2017-07-28T03:44:03.755Z,52
2017-07-28T03:45:04.020Z,60
2017-07-28T03:46:03.435Z,64
2017-07-28T03:47:03.971Z,72
2017-07-28T03:48:03.669Z,76
2017-07-28T03:49:03.657Z,80
2017-07-28T03:50:03.632Z,84
2017-07-28T03:51:03.689Z,96
2017-07-28T03:52:03.305Z,100
2017-07-28T03:53:03.619Z,108
2017-07-28T03:54:03.648Z,120
2017-07-28T03:55:03.942Z,128
2017-07-28T03:56:03.537Z,136
2017-07-28T03:57:03.854Z,148
2017-07-28T03:58:02.869Z,156
2017-07-28T03:59:02.869Z,168
2017-07-28T04:00:03.548Z,180
2017-07-28T04:01:03.448Z,196
2017-07-28T04:02:03.891Z,212
2017-07-28T04:03:03.404Z,228
2017-07-28T04:04:03.691Z,248
2017-07-28T04:05:03.382Z,260
2017-07-28T04:06:03.668Z,276
2017-07-28T04:07:03.717Z,292
2017-07-28T04:08:03.357Z,304
2017-07-28T04:09:03.613Z,324
2017-07-28T04:10:03.659Z,344
2017-07-28T04:11:03.592Z,368
2017-07-28T04:12:03.320Z,388
2017-07-28T04:13:03.250Z,404
2017-07-28T04:14:02.909Z,424
2017-07-28T04:15:03.571Z,436
2017-07-28T04:16:02.890Z,448
2017-07-28T04:17:03.489Z,472
2017-07-28T04:18:02.840Z,488
2017-07-28T04:19:02.829Z,516
2017-07-28T04:20:03.443Z,540
2017-07-28T04:21:03.489Z,556
2017-07-28T04:22:03.423Z,568
2017-07-28T04:23:02.760Z,588
2017-07-28T04:24:02.760Z,616
2017-07-28T04:25:03.393Z,644
2017-07-28T04:26:03.041Z,664
2017-07-28T04:27:02.702Z,688
2017-07-28T04:28:02.680Z,712
2017-07-28T04:29:03.291Z,740
2017-07-28T04:30:02.959Z,760
2017-07-28T04:31:02.322Z,776
2017-07-28T04:32:02.621Z,780
2017-07-28T04:33:03.282Z,772
2017-07-28T04:34:02.591Z,728
2017-07-28T04:35:02.884Z,612
2017-07-28T04:36:02.587Z,600
2017-07-28T04:37:02.842Z,640
2017-07-28T04:38:03.181Z,716
2017-07-28T04:39:02.806Z,716
2017-07-28T04:40:03.111Z,736
2017-07-28T04:41:02.463Z,736
2017-07-28T04:42:02.769Z,708
2017-07-28T04:43:02.442Z,628
2017-07-28T04:44:02.713Z,564
2017-07-28T04:45:02.701Z,572
2017-07-28T04:46:02.387Z,516
2017-07-28T04:47:02.696Z,504
2017-07-28T04:48:02.371Z,504
2017-07-28T04:49:02.651Z,484
2017-07-28T04:50:02.981Z,544
2017-07-28T04:51:02.659Z,664
2017-07-28T04:52:02.918Z,744
2017-07-28T04:53:02.600Z,760
2017-07-28T04:54:02.880Z,824
2017-07-28T04:55:02.604Z,828
2017-07-28T04:56:02.578Z,808
2017-07-28T04:57:02.840Z,792
2017-07-28T04:58:02.511Z,748
2017-07-28T04:59:02.502Z,736
2017-07-28T05:00:02.161Z,756
2017-07-28T05:01:02.510Z,860
2017-07-28T05:02:01.837Z,992
2017-07-28T05:03:02.728Z,1196
2017-07-28T05:04:02.719Z,1332
2017-07-28T05:05:02.770Z,1416
2017-07-28T05:06:02.681Z,1240
2017-07-28T05:07:02.680Z,1212
2017-07-28T05:08:02.661Z,1324
2017-07-28T05:09:02.648Z,1564
2017-07-28T05:10:02.621Z,1552
2017-07-28T05:11:02.303Z,1412
2017-07-28T05:12:02.610Z,1372
2017-07-28T05:13:02.575Z,1580
2017-07-28T05:14:02.552Z,1868
2017-07-28T05:15:02.530Z,1964
2017-07-28T05:16:02.231Z,1960
2017-07-28T05:17:02.499Z,1900
2017-07-28T05:18:02.491Z,1936
2017-07-28T05:19:01.540Z,1704
2017-07-28T05:20:02.469Z,1668
2017-07-28T05:21:02.455Z,1660
2017-07-28T05:22:02.466Z,1620
2017-07-28T05:23:02.413Z,1684
2017-07-28T05:24:02.404Z,1716
2017-07-28T05:25:02.392Z,1804
2017-07-28T05:26:02.351Z,1956
2017-07-28T05:27:02.351Z,2172
2017-07-28T05:28:02.342Z,2376
2017-07-28T05:29:02.301Z,2412
2017-07-28T05:30:02.007Z,2364
2017-07-28T05:31:01.975Z,2380
2017-07-28T05:32:01.951Z,2296
2017-07-28T05:33:02.063Z,2184
2017-07-28T05:34:02.031Z,2124
2017-07-28T05:35:01.901Z,2144
2017-07-28T05:36:02.204Z,2236
2017-07-28T05:37:01.984Z,2528
2017-07-28T05:38:01.871Z,2624
2017-07-28T05:39:01.840Z,2652
2017-07-28T05:40:02.153Z,2744
2017-07-28T05:41:02.120Z,2876
2017-07-28T05:42:01.801Z,2948
2017-07-28T05:43:02.099Z,2684
2017-07-28T05:44:01.452Z,2452
2017-07-28T05:45:02.060Z,2396
2017-07-28T05:46:01.739Z,2572
2017-07-28T05:47:02.041Z,2776
2017-07-28T05:48:02.012Z,3932
2017-07-28T05:49:01.981Z,4144
2017-07-28T05:50:01.972Z,3712
2017-07-28T05:51:01.970Z,3384
2017-07-28T05:52:01.952Z,4088
2017-07-28T05:53:01.408Z,4136
2017-07-28T05:54:01.612Z,4272
2017-07-28T05:55:01.887Z,4368
2017-07-28T05:56:01.869Z,4832
2017-07-28T05:57:01.889Z,4704
2017-07-28T05:58:01.540Z,4840
2017-07-28T05:59:01.812Z,3796
2017-07-28T06:00:01.512Z,2724
2017-07-28T06:01:01.489Z,2300
2017-07-28T06:02:01.480Z,2488
2017-07-28T06:03:01.520Z,3232
2017-07-28T06:04:01.491Z,3872
2017-07-28T06:05:01.437Z,4536
2017-07-28T06:06:01.416Z,4564
2017-07-28T06:07:01.389Z,4224
2017-07-28T06:08:01.080Z,4272
2017-07-28T06:09:01.379Z,4908
2017-07-28T06:10:01.454Z,5428
2017-07-28T06:11:01.654Z,5572
2017-07-28T06:12:00.701Z,5320
2017-07-28T06:13:01.612Z,4936
2017-07-28T06:14:01.380Z,5520
2017-07-28T06:15:01.270Z,5356
2017-07-28T06:16:01.560Z,5196
2017-07-28T06:17:01.545Z,5368
2017-07-28T06:18:01.216Z,5516
2017-07-28T06:19:01.213Z,5492
2017-07-28T06:20:00.870Z,4892
2017-07-28T06:21:01.514Z,6072
2017-07-28T06:22:01.280Z,6732
2017-07-28T06:23:01.460Z,6424
2017-07-28T06:24:01.139Z,5264
2017-07-28T06:25:00.831Z,5696
2017-07-28T06:26:01.411Z,6508
2017-07-28T06:27:01.392Z,5772
2017-07-28T06:28:01.072Z,6464
2017-07-28T06:29:01.050Z,6208
2017-07-28T06:30:01.469Z,6552
2017-07-28T06:31:00.400Z,6800
2017-07-28T06:32:01.020Z,8048
2017-07-28T06:33:01.291Z,6916
2017-07-28T06:34:00.981Z,7508
2017-07-28T06:35:00.971Z,7844
2017-07-28T06:36:00.950Z,7968
2017-07-28T06:37:01.306Z,8224
2017-07-28T06:38:00.599Z,7608
2017-07-28T06:39:01.214Z,7088
2017-07-28T06:40:00.879Z,5980
2017-07-28T06:41:00.571Z,5764
2017-07-28T06:42:00.857Z,5124
2017-07-28T06:43:01.245Z,4052
2017-07-28T06:44:01.132Z,4212
2017-07-28T06:45:00.500Z,3808
2017-07-28T06:46:00.783Z,3992
2017-07-28T06:47:00.480Z,3812
2017-07-28T06:48:00.772Z,4852
2017-07-28T06:49:01.056Z,4704
2017-07-28T06:50:00.432Z,4208
2017-07-28T06:51:00.720Z,3504
2017-07-28T06:52:01.092Z,3820
2017-07-28T06:53:00.689Z,3868
2017-07-28T06:54:00.699Z,4468
2017-07-28T06:55:00.659Z,4264
2017-07-28T06:56:00.659Z,3684
2017-07-28T06:57:00.335Z,3316
2017-07-28T06:58:00.672Z,3672
2017-07-28T06:59:00.590Z,3516
2017-07-28T07:00:00.290Z,3592
2017-07-28T07:01:00.883Z,3560
2017-07-28T07:02:00.985Z,4044
2017-07-28T07:03:00.843Z,3732
2017-07-28T07:04:00.532Z,3924
2017-07-28T07:05:00.224Z,3644
2017-07-28T07:06:00.829Z,4120
2017-07-28T07:07:00.785Z,4744
2017-07-28T07:08:00.480Z,6244
2017-07-28T07:09:00.749Z,5240
2017-07-28T07:10:00.132Z,4272
2017-07-28T07:11:00.111Z,4364
2017-07-28T07:12:00.393Z,4644
2017-07-28T07:13:00.791Z,4708
2017-07-28T07:14:00.666Z,3844
2017-07-28T07:15:00.432Z,4120
2017-07-28T07:16:00.340Z,4556
2017-07-28T07:17:00.023Z,5752
2017-07-28T07:18:00.012Z,7972
2017-07-28T07:19:00.006Z,9108
2017-07-28T07:20:00.280Z,7880
2017-07-28T07:20:59.750Z,6976
2017-07-28T07:22:00.561Z,7224
2017-07-28T07:23:00.240Z,9252
2017-07-28T07:24:00.224Z,10112
2017-07-28T07:25:00.221Z,9372
2017-07-28T07:26:00.211Z,7788
2017-07-28T07:27:00.214Z,4588
2017-07-28T07:28:00.157Z,4004
2017-07-28T07:29:00.151Z,3036
2017-07-28T07:30:00.132Z,2440
2017-07-28T07:31:00.121Z,3156
2017-07-28T07:32:00.424Z,3396
2017-07-28T07:32:59.824Z,3640
2017-07-28T07:34:00.092Z,3248
2017-07-28T07:35:00.151Z,3500
2017-07-28T07:36:00.066Z,4132
2017-07-28T07:37:00.034Z,6908
2017-07-28T07:38:00.331Z,8428
2017-07-28T07:39:00.013Z,11232
2017-07-28T07:40:00.309Z,4600
2017-07-28T07:41:00.288Z,4484
2017-07-28T07:42:00.280Z,4588
2017-07-28T07:43:00.251Z,4160
2017-07-28T07:44:00.250Z,4528
2017-07-28T07:44:59.961Z,4988
2017-07-28T07:46:00.218Z,6960
2017-07-28T07:47:00.200Z,5288
2017-07-28T07:47:59.891Z,4196
2017-07-28T07:49:00.173Z,4348
2017-07-28T07:50:00.161Z,4652
2017-07-28T07:50:59.874Z,4280
2017-07-28T07:51:59.833Z,3460
2017-07-28T07:52:59.522Z,3404
2017-07-28T07:54:00.114Z,3812
2017-07-28T07:55:00.081Z,3744
2017-07-28T07:56:00.072Z,5268
2017-07-28T07:56:59.770Z,5708
2017-07-28T07:57:59.431Z,9540
2017-07-28T07:59:00.056Z,10996
2017-07-28T08:00:00.013Z,9668
2017-07-28T08:01:00.022Z,12716
2017-07-28T08:01:59.983Z,9084
2017-07-28T08:02:59.975Z,7692
2017-07-28T08:03:59.672Z,7664
2017-07-28T08:04:59.657Z,6360
2017-07-28T08:05:59.941Z,6316
2017-07-28T08:06:59.592Z,6584
2017-07-28T08:07:59.641Z,5200
2017-07-28T08:08:59.923Z,4352
2017-07-28T08:09:59.649Z,4260
2017-07-28T08:10:59.605Z,4928
2017-07-28T08:11:59.836Z,5372
2017-07-28T08:12:59.832Z,4516
2017-07-28T08:13:59.512Z,4096
2017-07-28T08:14:59.788Z,4056
2017-07-28T08:15:59.174Z,3508
2017-07-28T08:16:59.508Z,4908
2017-07-28T08:17:59.147Z,5492
2017-07-28T08:18:59.480Z,4924
2017-07-28T08:19:59.450Z,5784
2017-07-28T08:20:59.548Z,8716
2017-07-28T08:21:59.702Z,5684
2017-07-28T08:22:59.071Z,6140
2017-07-28T08:23:59.672Z,8280
2017-07-28T08:24:59.461Z,6916
2017-07-28T08:25:59.354Z,5940
2017-07-28T08:26:59.694Z,5040
2017-07-28T08:27:59.335Z,4212
2017-07-28T08:28:59.347Z,5492
2017-07-28T08:29:59.568Z,5052
2017-07-28T08:30:59.570Z,5200
2017-07-28T08:31:59.568Z,4624
2017-07-28T08:32:59.632Z,5104
2017-07-28T08:33:59.208Z,5136
2017-07-28T08:34:59.237Z,5956
2017-07-28T08:35:59.602Z,7576
2017-07-28T08:36:59.170Z,7632
2017-07-28T08:37:59.152Z,7548
2017-07-28T08:38:59.170Z,6876
2017-07-28T08:39:59.562Z,7036
2017-07-28T08:40:59.423Z,7280
2017-07-28T08:41:59.413Z,9952
2017-07-28T08:42:59.402Z,27328
2017-07-28T08:43:59.095Z,10568
2017-07-28T08:44:59.051Z,9008
2017-07-28T08:45:58.730Z,9456
2017-07-28T08:46:59.342Z,14564
2017-07-28T08:47:59.031Z,6496
2017-07-28T08:48:58.692Z,7132
2017-07-28T08:49:59.313Z,7504
2017-07-28T08:50:58.990Z,9008
2017-07-28T08:51:58.653Z,8248
2017-07-28T08:52:58.942Z,5768
2017-07-28T08:53:58.953Z,6144
2017-07-28T08:54:58.935Z,6124
2017-07-28T08:55:58.605Z,6092
2017-07-28T08:56:59.194Z,5692
2017-07-28T08:57:58.883Z,7100
2017-07-28T08:58:58.882Z,6188
2017-07-28T08:59:59.174Z,15772
2017-07-28T09:00:58.850Z,8616
2017-07-28T09:01:59.121Z,6732
2017-07-28T09:02:58.501Z,5792
2017-07-28T09:03:58.793Z,4816
2017-07-28T09:04:59.084Z,4160
2017-07-28T09:05:59.100Z,5176
2017-07-28T09:06:58.466Z,9340
2017-07-28T09:07:58.740Z,16608
2017-07-28T09:08:59.052Z,27840
2017-07-28T09:09:58.420Z,16244
2017-07-28T09:10:58.414Z,64448
2017-07-28T09:11:59.003Z,85728
2017-07-28T09:12:58.392Z,17472
2017-07-28T09:13:58.665Z,11784
2017-07-28T09:14:58.966Z,12584
2017-07-28T09:15:58.984Z,20576
2017-07-28T09:16:58.965Z,11976
2017-07-28T09:17:58.932Z,11280
2017-07-28T09:18:58.915Z,30816
2017-07-28T09:19:58.292Z,16112
2017-07-28T09:20:58.603Z,12552
2017-07-28T09:21:58.587Z,72704
2017-07-28T09:22:58.256Z,74304
2017-07-28T09:23:58.853Z,34144
2017-07-28T09:24:58.534Z,18528
2017-07-28T09:25:58.834Z,18432
2017-07-28T09:26:58.224Z,11392
2017-07-28T09:27:58.506Z,15052
2017-07-28T09:28:58.793Z,15624
2017-07-28T09:29:58.186Z,13200
2017-07-28T09:30:58.476Z,28512
2017-07-28T09:31:58.783Z,61504
2017-07-28T09:32:58.765Z,77152
2017-07-28T09:33:58.845Z,69248
2017-07-28T09:34:58.445Z,61248
2017-07-28T09:35:58.124Z,62400
2017-07-28T09:36:58.716Z,49248
2017-07-28T09:37:58.209Z,69728
2017-07-28T09:38:58.710Z,52992
2017-07-28T09:39:58.213Z,16416
2017-07-28T09:40:58.444Z,14408
2017-07-28T09:41:57.846Z,12264
2017-07-28T09:42:58.424Z,8896
2017-07-28T09:43:58.400Z,11220
2017-07-28T09:44:58.051Z,10504
2017-07-28T09:45:58.065Z,12436
2017-07-28T09:46:58.315Z,9060
2017-07-28T09:47:58.367Z,5320
2017-07-28T09:48:58.310Z,6036
2017-07-28T09:49:58.000Z,7220
2017-07-28T09:50:57.773Z,72960
2017-07-28T09:51:58.637Z,38176
2017-07-28T09:52:58.574Z,68448
2017-07-28T09:53:58.558Z,65984
2017-07-28T09:54:57.934Z,63840
2017-07-28T09:55:58.241Z,66496
2017-07-28T09:56:58.233Z,62592
2017-07-28T09:57:58.564Z,57376
2017-07-28T09:58:57.886Z,11376
2017-07-28T09:59:58.193Z,31520
2017-07-28T10:00:58.496Z,36448
2017-07-28T10:01:58.016Z,8832
2017-07-28T10:02:57.875Z,6392
2017-07-28T10:03:58.471Z,5912
2017-07-28T10:04:57.844Z,54368
2017-07-28T10:05:58.265Z,37600
2017-07-28T10:06:57.857Z,28960
2017-07-28T10:07:58.436Z,23584
2017-07-28T10:08:58.114Z,28288
2017-07-28T10:09:57.805Z,30592
2017-07-28T10:10:58.106Z,23200
2017-07-28T10:11:58.089Z,30624
2017-07-28T10:12:58.088Z,62592
2017-07-28T10:13:58.077Z,59872
2017-07-28T10:14:58.374Z,57344
2017-07-28T10:15:57.755Z,32544
2017-07-28T10:16:57.750Z,51264
2017-07-28T10:17:58.376Z,16640
2017-07-28T10:18:58.333Z,8468
2017-07-28T10:19:58.014Z,7320
2017-07-28T10:20:58.014Z,13528
2017-07-28T10:21:57.715Z,14636
2017-07-28T10:22:58.305Z,13416
2017-07-28T10:23:58.380Z,11560
2017-07-28T10:24:58.352Z,9352
2017-07-28T10:25:58.283Z,8776
2017-07-28T10:26:57.974Z,11960
2017-07-28T10:27:58.044Z,10868
2017-07-28T10:28:57.964Z,11396
2017-07-28T10:29:57.645Z,9348
2017-07-28T10:30:57.924Z,6224
2017-07-28T10:31:57.953Z,9836
2017-07-28T10:32:58.214Z,7268
2017-07-28T10:33:57.913Z,11920
2017-07-28T10:34:57.895Z,6556
2017-07-28T10:35:57.884Z,6596
2017-07-28T10:36:57.555Z,7356
2017-07-28T10:37:57.844Z,10624
2017-07-28T10:38:57.853Z,9496
2017-07-28T10:39:57.864Z,8928
2017-07-28T10:40:58.145Z,9032
2017-07-28T10:41:58.123Z,11632
2017-07-28T10:42:58.134Z,7384
2017-07-28T10:43:57.808Z,7800
2017-07-28T10:44:57.805Z,9032
2017-07-28T10:45:57.785Z,14360
2017-07-28T10:46:57.777Z,14208
2017-07-28T10:47:57.766Z,13196
2017-07-28T10:48:57.755Z,13444
2017-07-28T10:49:58.032Z,13620
2017-07-28T10:50:57.725Z,14372
2017-07-28T10:51:57.715Z,9968
2017-07-28T10:52:57.717Z,9640
2017-07-28T10:53:57.717Z,10184
2017-07-28T10:54:57.686Z,9868
2017-07-28T10:55:57.992Z,7908
2017-07-28T10:56:57.695Z,5856
2017-07-28T10:57:57.965Z,4540
2017-07-28T10:58:57.662Z,4212
2017-07-28T10:59:57.641Z,3988
2017-07-28T11:00:57.946Z,3876
2017-07-28T11:01:57.696Z,3732
2017-07-28T11:02:57.635Z,3892
2017-07-28T11:03:57.893Z,4280
2017-07-28T11:04:57.894Z,4944
2017-07-28T11:05:57.676Z,5604
2017-07-28T11:06:57.576Z,7616
2017-07-28T11:07:57.562Z,8780
2017-07-28T11:08:57.564Z,9204
2017-07-28T11:09:57.943Z,9148
2017-07-28T11:10:57.865Z,8896
2017-07-28T11:11:57.814Z,8920
2017-07-28T11:12:57.816Z,8640
2017-07-28T11:13:57.806Z,8668
2017-07-28T11:14:57.477Z,9120
2017-07-28T11:15:57.800Z,9568
2017-07-28T11:16:57.154Z,9220
2017-07-28T11:17:57.758Z,8552
2017-07-28T11:18:57.745Z,8100
2017-07-28T11:19:57.848Z,8664
2017-07-28T11:20:57.727Z,8560
2017-07-28T11:21:57.432Z,7392
2017-07-28T11:22:57.783Z,6172
2017-07-28T11:23:57.394Z,5396
2017-07-28T11:24:57.713Z,5332
2017-07-28T11:25:57.063Z,5444
2017-07-28T11:26:57.043Z,5248
2017-07-28T11:27:57.644Z,4892
2017-07-28T11:28:57.023Z,4408
2017-07-28T11:29:57.618Z,3992
2017-07-28T11:30:57.646Z,3480
2017-07-28T11:31:57.602Z,3076
2017-07-28T11:32:57.605Z,2660
2017-07-28T11:33:57.593Z,2404
2017-07-28T11:34:57.572Z,2324
2017-07-28T11:35:57.555Z,2284
2017-07-28T11:36:57.570Z,2236
2017-07-28T11:37:56.958Z,2172
2017-07-28T11:38:57.627Z,2052
2017-07-28T11:39:57.184Z,1960
2017-07-28T11:40:57.495Z,1880
2017-07-28T11:41:57.184Z,1724
2017-07-28T11:42:57.159Z,1480
2017-07-28T11:43:57.465Z,1236
2017-07-28T11:44:57.146Z,1000
2017-07-28T11:45:57.128Z,984
2017-07-28T11:46:57.113Z,1104
2017-07-28T11:47:57.113Z,1256
2017-07-28T11:48:57.065Z,1420
2017-07-28T11:49:57.073Z,1592
2017-07-28T11:50:57.350Z,1812
2017-07-28T11:51:56.744Z,2044
2017-07-28T11:52:56.724Z,2264
2017-07-28T11:53:57.346Z,2520
2017-07-28T11:54:57.323Z,2792
2017-07-28T11:55:56.699Z,3076
2017-07-28T11:56:57.313Z,3284
2017-07-28T11:57:57.261Z,3508
2017-07-28T11:58:57.257Z,3924
2017-07-28T11:59:57.242Z,4432
2017-07-28T12:00:57.226Z,5100
2017-07-28T12:01:57.219Z,6292
2017-07-28T12:02:57.202Z,8276
2017-07-28T12:03:57.194Z,8928
2017-07-28T12:04:57.183Z,9424
2017-07-28T12:05:56.542Z,9088
2017-07-28T12:06:57.152Z,8752
2017-07-28T12:07:57.144Z,7956
2017-07-28T12:08:56.822Z,7384
2017-07-28T12:09:56.793Z,6980
2017-07-28T12:10:57.092Z,6548
2017-07-28T12:11:57.103Z,6416
2017-07-28T12:12:57.072Z,6148
2017-07-28T12:13:56.765Z,5736
2017-07-28T12:14:56.543Z,5768
2017-07-28T12:15:56.484Z,6028
2017-07-28T12:16:56.734Z,6128
2017-07-28T12:17:57.003Z,6632
2017-07-28T12:18:56.686Z,6636
2017-07-28T12:19:56.753Z,6744
2017-07-28T12:20:56.109Z,6896
2017-07-28T12:21:56.716Z,7292
2017-07-28T12:22:56.338Z,7576
2017-07-28T12:23:56.645Z,7920
2017-07-28T12:24:56.613Z,8056
2017-07-28T12:25:56.614Z,8492
2017-07-28T12:26:56.294Z,8384
2017-07-28T12:27:56.972Z,8236
2017-07-28T12:28:56.573Z,8728
2017-07-28T12:29:56.622Z,9032
2017-07-28T12:30:56.854Z,9064
2017-07-28T12:31:56.564Z,9700
2017-07-28T12:32:56.624Z,11276
2017-07-28T12:33:56.261Z,13036
2017-07-28T12:34:56.305Z,14144
2017-07-28T12:35:56.481Z,13408
2017-07-28T12:36:56.567Z,11360
2017-07-28T12:37:56.562Z,10076
2017-07-28T12:38:56.484Z,9676
2017-07-28T12:39:56.140Z,8932
2017-07-28T12:40:56.446Z,10420
2017-07-28T12:41:56.775Z,9608
2017-07-28T12:42:56.702Z,8420
2017-07-28T12:43:56.713Z,7920
2017-07-28T12:44:56.392Z,8700
2017-07-28T12:45:56.391Z,7616
2017-07-28T12:46:56.422Z,8576
2017-07-28T12:47:56.042Z,6280
2017-07-28T12:48:56.701Z,6912
2017-07-28T12:49:56.658Z,9376
2017-07-28T12:50:56.315Z,8612
2017-07-28T12:51:56.671Z,7176
2017-07-28T12:52:56.091Z,6812
2017-07-28T12:53:56.582Z,9468
2017-07-28T12:54:56.274Z,10516
2017-07-28T12:55:56.262Z,7640
2017-07-28T12:56:56.242Z,7212
2017-07-28T12:57:56.562Z,6860
2017-07-28T12:58:56.533Z,6432
2017-07-28T12:59:55.924Z,5664
2017-07-28T13:00:56.013Z,5444
2017-07-28T13:01:56.201Z,4964
2017-07-28T13:02:55.871Z,5036
2017-07-28T13:03:56.473Z,4456
2017-07-28T13:04:55.912Z,3860
2017-07-28T13:05:56.272Z,3352
2017-07-28T13:06:56.441Z,2796
2017-07-28T13:07:56.439Z,2468
2017-07-28T13:08:56.113Z,2408
2017-07-28T13:09:56.094Z,2616
2017-07-28T13:10:56.129Z,3132
2017-07-28T13:11:56.374Z,3828
2017-07-28T13:12:56.084Z,5264
2017-07-28T13:13:56.132Z,9660
2017-07-28T13:14:56.114Z,8400
2017-07-28T13:15:56.334Z,11872
2017-07-28T13:16:56.039Z,12204
2017-07-28T13:17:56.023Z,9328
2017-07-28T13:18:56.301Z,9504
2017-07-28T13:19:55.672Z,8096
2017-07-28T13:20:56.010Z,7984
2017-07-28T13:21:55.964Z,11272
2017-07-28T13:22:55.972Z,8588
2017-07-28T13:23:56.413Z,7608
2017-07-28T13:24:55.630Z,7708
2017-07-28T13:25:55.612Z,7516
2017-07-28T13:26:55.916Z,6176
2017-07-28T13:27:56.191Z,5988
2017-07-28T13:28:55.591Z,5480
2017-07-28T13:29:55.561Z,5472
2017-07-28T13:30:56.171Z,5708
2017-07-28T13:31:55.546Z,6364
2017-07-28T13:32:56.162Z,7860
2017-07-28T13:33:55.512Z,6736
2017-07-28T13:34:55.831Z,6516
2017-07-28T13:35:55.804Z,6216
2017-07-28T13:36:56.093Z,5416
2017-07-28T13:37:55.813Z,4860
2017-07-28T13:38:55.771Z,4592